sensor_id;sensor_type;location;lat;lon;timestamp;P1;durP1;ratioP1;P2;durP2;ratioP2
8113;SDS011;4099;52.684;9.918;2023-07-29T00:04:11;8.77;;;7.97;;
8113;SDS011;4099;52.684;9.918;2023-07-29T00:09:14;8.27;;;7.60;;
8113;SDS011;4099;52.684;9.918;2023-07-29T00:14:18;8.30;;;7.60;;
8113;SDS011;4099;52.684;9.918;2023-07-29T00:19:21;8.80;;;8.10;;
8113;SDS011;4099;52.684;9.918;2023-07-29T00:24:23;9.53;;;8.73;;
8113;SDS011;4099;52.684;9.918;2023-07-29T00:29:25;9.40;;;8.60;;
8113;SDS011;4099;52.684;9.918;2023-07-29T00:34:28;8.90;;;8.03;;
8113;SDS011;4099;52.684;9.918;2023-07-29T00:39:31;9.30;;;8.20;;
8113;SDS011;4099;52.684;9.918;2023-07-29T00:44:32;8.30;;;7.60;;
8113;SDS011;4099;52.684;9.918;2023-07-29T00:49:36;8.57;;;7.87;;
8113;SDS011;4099;52.684;9.918;2023-07-29T00:54:38;8.20;;;7.50;;
8113;SDS011;4099;52.684;9.918;2023-07-29T00:59:40;8.23;;;7.53;;
8113;SDS011;4099;52.684;9.918;2023-07-29T01:04:43;8.07;;;7.37;;
8113;SDS011;4099;52.684;9.918;2023-07-29T01:09:50;8.53;;;7.83;;
8113;SDS011;4099;52.684;9.918;2023-07-29T01:15:01;8.00;;;7.40;;
8113;SDS011;4099;52.684;9.918;2023-07-29T01:20:13;7.60;;;7.00;;
8113;SDS011;4099;52.684;9.918;2023-07-29T01:25:18;8.03;;;6.93;;
8113;SDS011;4099;52.684;9.918;2023-07-29T01:30:20;7.80;;;7.00;;
8113;SDS011;4099;52.684;9.918;2023-07-29T01:35:27;7.23;;;6.60;;
8113;SDS011;4099;52.684;9.918;2023-07-29T01:40:35;7.20;;;6.60;;
8113;SDS011;4099;52.684;9.918;2023-07-29T01:45:37;9.80;;;7.30;;
8113;SDS011;4099;52.684;9.918;2023-07-29T01:50:40;6.80;;;6.20;;
8113;SDS011;4099;52.684;9.918;2023-07-29T01:55:44;6.47;;;5.97;;
8113;SDS011;4099;52.684;9.918;2023-07-29T02:00:46;7.30;;;6.70;;
8113;SDS011;4099;52.684;9.918;2023-07-29T02:05:48;6.70;;;6.07;;
8113;SDS011;4099;52.684;9.918;2023-07-29T02:10:51;7.50;;;6.83;;
8113;SDS011;4099;52.684;9.918;2023-07-29T02:15:53;6.30;;;5.80;;
8113;SDS011;4099;52.684;9.918;2023-07-29T02:20:55;5.97;;;5.57;;
8113;SDS011;4099;52.684;9.918;2023-07-29T02:25:58;5.60;;;5.10;;
8113;SDS011;4099;52.684;9.918;2023-07-29T02:31:09;6.80;;;5.80;;
8113;SDS011;4099;52.684;9.918;2023-07-29T02:36:16;5.93;;;5.43;;
8113;SDS011;4099;52.684;9.918;2023-07-29T02:41:20;6.10;;;5.53;;
8113;SDS011;4099;52.684;9.918;2023-07-29T02:46:22;6.23;;;5.73;;
8113;SDS011;4099;52.684;9.918;2023-07-29T02:51:24;5.40;;;5.00;;
8113;SDS011;4099;52.684;9.918;2023-07-29T02:56:27;6.43;;;5.80;;
8113;SDS011;4099;52.684;9.918;2023-07-29T03:01:30;6.93;;;5.60;;
8113;SDS011;4099;52.684;9.918;2023-07-29T03:06:32;6.20;;;5.60;;
8113;SDS011;4099;52.684;9.918;2023-07-29T03:11:37;5.63;;;5.13;;
8113;SDS011;4099;52.684;9.918;2023-07-29T03:16:38;5.73;;;5.23;;
8113;SDS011;4099;52.684;9.918;2023-07-29T03:21:40;5.73;;;5.20;;
8113;SDS011;4099;52.684;9.918;2023-07-29T03:26:43;5.47;;;4.97;;
8113;SDS011;4099;52.684;9.918;2023-07-29T03:31:45;5.13;;;4.73;;
8113;SDS011;4099;52.684;9.918;2023-07-29T03:36:47;5.03;;;4.53;;
8113;SDS011;4099;52.684;9.918;2023-07-29T03:41:52;4.47;;;4.17;;
8113;SDS011;4099;52.684;9.918;2023-07-29T03:46:54;4.50;;;4.20;;
8113;SDS011;4099;52.684;9.918;2023-07-29T03:51:56;4.57;;;4.17;;
8113;SDS011;4099;52.684;9.918;2023-07-29T03:56:59;4.67;;;4.27;;
8113;SDS011;4099;52.684;9.918;2023-07-29T04:02:01;4.33;;;3.80;;
8113;SDS011;4099;52.684;9.918;2023-07-29T04:07:03;5.53;;;4.23;;
8113;SDS011;4099;52.684;9.918;2023-07-29T04:12:07;4.80;;;4.40;;
8113;SDS011;4099;52.684;9.918;2023-07-29T04:17:09;4.33;;;4.03;;
8113;SDS011;4099;52.684;9.918;2023-07-29T04:22:11;4.30;;;4.00;;
8113;SDS011;4099;52.684;9.918;2023-07-29T04:27:14;4.50;;;4.10;;
8113;SDS011;4099;52.684;9.918;2023-07-29T04:32:16;4.00;;;3.70;;
8113;SDS011;4099;52.684;9.918;2023-07-29T04:37:18;6.23;;;4.13;;
8113;SDS011;4099;52.684;9.918;2023-07-29T04:42:21;4.50;;;4.20;;
8113;SDS011;4099;52.684;9.918;2023-07-29T04:47:25;5.37;;;4.13;;
8113;SDS011;4099;52.684;9.918;2023-07-29T04:52:27;4.20;;;3.90;;
8113;SDS011;4099;52.684;9.918;2023-07-29T04:57:30;4.53;;;4.13;;
8113;SDS011;4099;52.684;9.918;2023-07-29T05:02:32;5.10;;;4.67;;
8113;SDS011;4099;52.684;9.918;2023-07-29T05:07:34;5.60;;;5.10;;
8113;SDS011;4099;52.684;9.918;2023-07-29T05:12:37;4.60;;;4.30;;
8113;SDS011;4099;52.684;9.918;2023-07-29T05:17:39;4.87;;;4.37;;
8113;SDS011;4099;52.684;9.918;2023-07-29T05:22:41;6.37;;;3.97;;
8113;SDS011;4099;52.684;9.918;2023-07-29T05:27:44;5.13;;;4.03;;
8113;SDS011;4099;52.684;9.918;2023-07-29T05:32:46;4.03;;;3.73;;
8113;SDS011;4099;52.684;9.918;2023-07-29T05:37:48;4.20;;;3.80;;
8113;SDS011;4099;52.684;9.918;2023-07-29T05:42:52;4.43;;;4.03;;
8113;SDS011;4099;52.684;9.918;2023-07-29T05:47:54;4.47;;;3.87;;
8113;SDS011;4099;52.684;9.918;2023-07-29T05:52:56;4.00;;;3.70;;
8113;SDS011;4099;52.684;9.918;2023-07-29T05:57:59;4.23;;;3.60;;
8113;SDS011;4099;52.684;9.918;2023-07-29T06:03:01;3.60;;;3.30;;
8113;SDS011;4099;52.684;9.918;2023-07-29T06:08:03;3.97;;;3.67;;
8113;SDS011;4099;52.684;9.918;2023-07-29T06:13:06;3.40;;;3.20;;
8113;SDS011;4099;52.684;9.918;2023-07-29T06:18:08;3.40;;;3.20;;
8113;SDS011;4099;52.684;9.918;2023-07-29T06:23:10;4.43;;;3.23;;
8113;SDS011;4099;52.684;9.918;2023-07-29T06:28:13;4.03;;;3.00;;
8113;SDS011;4099;52.684;9.918;2023-07-29T06:33:15;3.37;;;3.07;;
8113;SDS011;4099;52.684;9.918;2023-07-29T06:38:17;3.07;;;2.80;;
8113;SDS011;4099;52.684;9.918;2023-07-29T06:43:23;3.07;;;2.87;;
8113;SDS011;4099;52.684;9.918;2023-07-29T06:48:25;2.97;;;2.77;;
8113;SDS011;4099;52.684;9.918;2023-07-29T06:53:26;3.00;;;2.80;;
8113;SDS011;4099;52.684;9.918;2023-07-29T06:58:30;3.37;;;3.07;;
8113;SDS011;4099;52.684;9.918;2023-07-29T07:03:31;2.97;;;2.77;;
8113;SDS011;4099;52.684;9.918;2023-07-29T07:08:33;3.10;;;2.90;;
8113;SDS011;4099;52.684;9.918;2023-07-29T07:13:36;3.00;;;2.80;;
8113;SDS011;4099;52.684;9.918;2023-07-29T07:18:38;3.00;;;2.80;;
8113;SDS011;4099;52.684;9.918;2023-07-29T07:23:40;3.13;;;2.93;;
8113;SDS011;4099;52.684;9.918;2023-07-29T07:28:43;3.40;;;2.90;;
8113;SDS011;4099;52.684;9.918;2023-07-29T07:33:45;2.57;;;2.37;;
8113;SDS011;4099;52.684;9.918;2023-07-29T07:38:47;2.93;;;2.40;;
8113;SDS011;4099;52.684;9.918;2023-07-29T07:43:50;2.70;;;2.50;;
8113;SDS011;4099;52.684;9.918;2023-07-29T07:48:52;3.17;;;2.87;;
8113;SDS011;4099;52.684;9.918;2023-07-29T07:53:54;2.90;;;2.70;;
8113;SDS011;4099;52.684;9.918;2023-07-29T07:58:57;2.80;;;2.60;;
8113;SDS011;4099;52.684;9.918;2023-07-29T08:03:59;2.80;;;2.70;;
8113;SDS011;4099;52.684;9.918;2023-07-29T08:09:00;2.90;;;2.70;;
8113;SDS011;4099;52.684;9.918;2023-07-29T08:14:03;2.77;;;2.60;;
8113;SDS011;4099;52.684;9.918;2023-07-29T08:19:05;3.43;;;3.13;;
8113;SDS011;4099;52.684;9.918;2023-07-29T08:24:09;3.30;;;3.10;;
8113;SDS011;4099;52.684;9.918;2023-07-29T08:29:12;3.60;;;3.30;;
8113;SDS011;4099;52.684;9.918;2023-07-29T08:34:14;3.10;;;2.90;;
8113;SDS011;4099;52.684;9.918;2023-07-29T08:39:16;3.60;;;3.30;;
8113;SDS011;4099;52.684;9.918;2023-07-29T08:44:20;4.50;;;3.83;;
8113;SDS011;4099;52.684;9.918;2023-07-29T08:49:23;4.97;;;4.57;;
8113;SDS011;4099;52.684;9.918;2023-07-29T08:54:27;4.73;;;4.33;;
8113;SDS011;4099;52.684;9.918;2023-07-29T08:59:30;4.87;;;4.47;;
8113;SDS011;4099;52.684;9.918;2023-07-29T09:04:32;6.03;;;4.83;;
8113;SDS011;4099;52.684;9.918;2023-07-29T09:09:34;5.00;;;4.63;;
8113;SDS011;4099;52.684;9.918;2023-07-29T09:14:38;5.60;;;5.10;;
8113;SDS011;4099;52.684;9.918;2023-07-29T09:19:39;5.33;;;4.90;;
8113;SDS011;4099;52.684;9.918;2023-07-29T09:24:41;5.97;;;5.17;;
8113;SDS011;4099;52.684;9.918;2023-07-29T09:29:44;6.30;;;4.93;;
8113;SDS011;4099;52.684;9.918;2023-07-29T09:34:48;6.93;;;6.43;;
8113;SDS011;4099;52.684;9.918;2023-07-29T09:39:50;7.27;;;6.57;;
8113;SDS011;4099;52.684;9.918;2023-07-29T09:44:56;7.60;;;6.90;;
8113;SDS011;4099;52.684;9.918;2023-07-29T09:49:58;7.47;;;6.77;;
8113;SDS011;4099;52.684;9.918;2023-07-29T09:55:01;8.07;;;7.47;;
8113;SDS011;4099;52.684;9.918;2023-07-29T10:00:07;7.80;;;7.20;;
8113;SDS011;4099;52.684;9.918;2023-07-29T10:05:12;8.40;;;7.70;;
8113;SDS011;4099;52.684;9.918;2023-07-29T10:10:13;8.43;;;7.73;;
8113;SDS011;4099;52.684;9.918;2023-07-29T10:15:17;4.90;;;4.50;;
8113;SDS011;4099;52.684;9.918;2023-07-29T10:20:19;9.13;;;6.30;;
8113;SDS011;4099;52.684;9.918;2023-07-29T10:25:22;6.17;;;5.57;;
8113;SDS011;4099;52.684;9.918;2023-07-29T10:30:25;6.07;;;5.57;;
8113;SDS011;4099;52.684;9.918;2023-07-29T10:35:29;6.57;;;5.97;;
8113;SDS011;4099;52.684;9.918;2023-07-29T10:40:45;7.13;;;6.53;;
8113;SDS011;4099;52.684;9.918;2023-07-29T10:45:50;8.80;;;8.00;;
8113;SDS011;4099;52.684;9.918;2023-07-29T10:50:53;8.57;;;7.77;;
8113;SDS011;4099;52.684;9.918;2023-07-29T10:56:28;8.47;;;7.77;;
8113;SDS011;4099;52.684;9.918;2023-07-29T11:01:33;7.47;;;6.77;;
8113;SDS011;4099;52.684;9.918;2023-07-29T11:06:49;6.73;;;5.87;;
8113;SDS011;4099;52.684;9.918;2023-07-29T11:12:34;7.43;;;6.73;;
8113;SDS011;4099;52.684;9.918;2023-07-29T11:17:38;7.97;;;7.27;;
8113;SDS011;4099;52.684;9.918;2023-07-29T11:22:41;7.33;;;6.83;;
8113;SDS011;4099;52.684;9.918;2023-07-29T11:27:44;8.53;;;7.80;;
8113;SDS011;4099;52.684;9.918;2023-07-29T11:32:47;7.00;;;6.50;;
8113;SDS011;4099;52.684;9.918;2023-07-29T11:37:50;8.13;;;7.50;;
8113;SDS011;4099;52.684;9.918;2023-07-29T11:42:53;6.83;;;6.33;;
8113;SDS011;4099;52.684;9.918;2023-07-29T11:47:56;6.33;;;5.73;;
8113;SDS011;4099;52.684;9.918;2023-07-29T11:52:59;6.17;;;5.67;;
8113;SDS011;4099;52.684;9.918;2023-07-29T11:58:01;5.63;;;5.23;;
8113;SDS011;4099;52.684;9.918;2023-07-29T12:03:05;5.43;;;5.07;;
8113;SDS011;4099;52.684;9.918;2023-07-29T12:08:10;5.30;;;4.90;;
8113;SDS011;4099;52.684;9.918;2023-07-29T12:13:13;5.03;;;4.57;;
8113;SDS011;4099;52.684;9.918;2023-07-29T12:18:17;4.63;;;4.33;;
8113;SDS011;4099;52.684;9.918;2023-07-29T12:23:18;4.20;;;3.90;;
8113;SDS011;4099;52.684;9.918;2023-07-29T12:28:26;4.13;;;3.77;;
8113;SDS011;4099;52.684;9.918;2023-07-29T12:33:33;3.27;;;3.00;;
8113;SDS011;4099;52.684;9.918;2023-07-29T12:38:36;3.00;;;2.30;;
8113;SDS011;4099;52.684;9.918;2023-07-29T12:43:38;1.97;;;1.87;;
8113;SDS011;4099;52.684;9.918;2023-07-29T12:48:41;3.37;;;1.93;;
8113;SDS011;4099;52.684;9.918;2023-07-29T12:53:43;2.10;;;1.90;;
8113;SDS011;4099;52.684;9.918;2023-07-29T12:58:45;1.70;;;1.60;;
8113;SDS011;4099;52.684;9.918;2023-07-29T13:03:48;2.40;;;1.37;;
8113;SDS011;4099;52.684;9.918;2023-07-29T13:08:50;1.60;;;1.50;;
8113;SDS011;4099;52.684;9.918;2023-07-29T13:13:52;1.37;;;1.20;;
8113;SDS011;4099;52.684;9.918;2023-07-29T13:18:55;2.03;;;1.50;;
8113;SDS011;4099;52.684;9.918;2023-07-29T13:23:57;1.70;;;1.60;;
8113;SDS011;4099;52.684;9.918;2023-07-29T13:28:59;1.50;;;1.40;;
8113;SDS011;4099;52.684;9.918;2023-07-29T13:34:02;1.40;;;1.30;;
8113;SDS011;4099;52.684;9.918;2023-07-29T13:39:04;1.70;;;1.60;;
8113;SDS011;4099;52.684;9.918;2023-07-29T13:44:06;1.63;;;1.53;;
8113;SDS011;4099;52.684;9.918;2023-07-29T13:49:09;1.73;;;1.63;;
8113;SDS011;4099;52.684;9.918;2023-07-29T13:54:11;1.90;;;1.30;;
8113;SDS011;4099;52.684;9.918;2023-07-29T13:59:13;1.83;;;1.70;;
8113;SDS011;4099;52.684;9.918;2023-07-29T14:04:16;1.80;;;1.70;;
8113;SDS011;4099;52.684;9.918;2023-07-29T14:09:18;2.17;;;1.67;;
8113;SDS011;4099;52.684;9.918;2023-07-29T14:14:20;2.33;;;1.40;;
8113;SDS011;4099;52.684;9.918;2023-07-29T14:19:23;1.90;;;1.70;;
8113;SDS011;4099;52.684;9.918;2023-07-29T14:24:25;1.77;;;1.60;;
8113;SDS011;4099;52.684;9.918;2023-07-29T14:29:28;2.47;;;1.60;;
8113;SDS011;4099;52.684;9.918;2023-07-29T14:34:31;1.90;;;1.70;;
8113;SDS011;4099;52.684;9.918;2023-07-29T14:39:33;1.50;;;1.40;;
8113;SDS011;4099;52.684;9.918;2023-07-29T14:44:35;1.80;;;1.63;;
8113;SDS011;4099;52.684;9.918;2023-07-29T14:49:38;1.53;;;1.43;;
8113;SDS011;4099;52.684;9.918;2023-07-29T14:54:40;1.50;;;1.40;;
8113;SDS011;4099;52.684;9.918;2023-07-29T14:59:42;2.40;;;1.50;;
8113;SDS011;4099;52.684;9.918;2023-07-29T15:04:45;1.90;;;1.80;;
8113;SDS011;4099;52.684;9.918;2023-07-29T15:09:47;1.73;;;1.60;;
8113;SDS011;4099;52.684;9.918;2023-07-29T15:14:49;3.30;;;1.70;;
8113;SDS011;4099;52.684;9.918;2023-07-29T15:19:52;1.47;;;1.37;;
8113;SDS011;4099;52.684;9.918;2023-07-29T15:24:54;1.60;;;1.50;;
8113;SDS011;4099;52.684;9.918;2023-07-29T15:29:56;1.53;;;1.43;;
8113;SDS011;4099;52.684;9.918;2023-07-29T15:34:59;1.60;;;1.50;;
8113;SDS011;4099;52.684;9.918;2023-07-29T15:40:01;1.50;;;1.40;;
8113;SDS011;4099;52.684;9.918;2023-07-29T15:45:03;1.37;;;1.27;;
8113;SDS011;4099;52.684;9.918;2023-07-29T15:50:08;2.87;;;1.43;;
8113;SDS011;4099;52.684;9.918;2023-07-29T15:55:10;1.63;;;1.53;;
8113;SDS011;4099;52.684;9.918;2023-07-29T16:00:12;1.80;;;1.53;;
8113;SDS011;4099;52.684;9.918;2023-07-29T16:05:16;1.90;;;1.67;;
8113;SDS011;4099;52.684;9.918;2023-07-29T16:10:18;2.20;;;2.00;;
8113;SDS011;4099;52.684;9.918;2023-07-29T16:15:21;2.10;;;2.00;;
8113;SDS011;4099;52.684;9.918;2023-07-29T16:20:24;3.10;;;2.20;;
8113;SDS011;4099;52.684;9.918;2023-07-29T16:25:26;2.03;;;1.93;;
8113;SDS011;4099;52.684;9.918;2023-07-29T16:30:28;2.13;;;1.97;;
8113;SDS011;4099;52.684;9.918;2023-07-29T16:35:31;2.40;;;2.20;;
8113;SDS011;4099;52.684;9.918;2023-07-29T16:40:33;2.50;;;2.30;;
8113;SDS011;4099;52.684;9.918;2023-07-29T16:45:35;2.83;;;2.63;;
8113;SDS011;4099;52.684;9.918;2023-07-29T16:50:38;2.60;;;2.40;;
8113;SDS011;4099;52.684;9.918;2023-07-29T16:55:41;2.10;;;2.00;;
8113;SDS011;4099;52.684;9.918;2023-07-29T17:00:43;2.67;;;2.10;;
8113;SDS011;4099;52.684;9.918;2023-07-29T17:05:46;2.33;;;1.83;;
8113;SDS011;4099;52.684;9.918;2023-07-29T17:10:48;3.60;;;2.10;;
8113;SDS011;4099;52.684;9.918;2023-07-29T17:15:50;2.10;;;2.00;;
8113;SDS011;4099;52.684;9.918;2023-07-29T17:20:53;1.97;;;1.87;;
8113;SDS011;4099;52.684;9.918;2023-07-29T17:25:55;2.00;;;1.90;;
8113;SDS011;4099;52.684;9.918;2023-07-29T17:30:56;1.80;;;1.50;;
8113;SDS011;4099;52.684;9.918;2023-07-29T17:36:00;2.03;;;1.50;;
8113;SDS011;4099;52.684;9.918;2023-07-29T17:41:01;1.57;;;1.47;;
8113;SDS011;4099;52.684;9.918;2023-07-29T17:46:03;1.60;;;1.50;;
8113;SDS011;4099;52.684;9.918;2023-07-29T17:51:06;1.80;;;1.50;;
8113;SDS011;4099;52.684;9.918;2023-07-29T17:56:08;1.80;;;1.70;;
8113;SDS011;4099;52.684;9.918;2023-07-29T18:01:10;1.73;;;1.63;;
8113;SDS011;4099;52.684;9.918;2023-07-29T18:06:14;1.70;;;1.60;;
8113;SDS011;4099;52.684;9.918;2023-07-29T18:11:16;1.70;;;1.60;;
8113;SDS011;4099;52.684;9.918;2023-07-29T18:16:18;1.90;;;1.80;;
8113;SDS011;4099;52.684;9.918;2023-07-29T18:21:22;2.33;;;1.90;;
8113;SDS011;4099;52.684;9.918;2023-07-29T18:26:24;1.57;;;1.47;;
8113;SDS011;4099;52.684;9.918;2023-07-29T18:31:26;2.20;;;2.10;;
8113;SDS011;4099;52.684;9.918;2023-07-29T18:36:29;2.10;;;1.90;;
8113;SDS011;4099;52.684;9.918;2023-07-29T18:41:31;2.60;;;2.40;;
8113;SDS011;4099;52.684;9.918;2023-07-29T18:46:36;3.77;;;2.20;;
8113;SDS011;4099;52.684;9.918;2023-07-29T18:51:39;2.50;;;2.00;;
8113;SDS011;4099;52.684;9.918;2023-07-29T18:56:41;2.23;;;2.03;;
8113;SDS011;4099;52.684;9.918;2023-07-29T19:01:43;2.50;;;2.30;;
8113;SDS011;4099;52.684;9.918;2023-07-29T19:06:46;2.20;;;2.10;;
8113;SDS011;4099;52.684;9.918;2023-07-29T19:11:49;2.67;;;2.47;;
8113;SDS011;4099;52.684;9.918;2023-07-29T19:16:51;4.33;;;2.70;;
8113;SDS011;4099;52.684;9.918;2023-07-29T19:21:54;3.00;;;2.50;;
8113;SDS011;4099;52.684;9.918;2023-07-29T19:26:56;2.53;;;2.33;;
8113;SDS011;4099;52.684;9.918;2023-07-29T19:32:01;3.43;;;2.70;;
8113;SDS011;4099;52.684;9.918;2023-07-29T19:37:04;2.50;;;2.30;;
8113;SDS011;4099;52.684;9.918;2023-07-29T19:42:07;2.90;;;2.60;;
8113;SDS011;4099;52.684;9.918;2023-07-29T19:47:09;3.93;;;2.50;;
8113;SDS011;4099;52.684;9.918;2023-07-29T19:52:13;2.57;;;2.30;;
8113;SDS011;4099;52.684;9.918;2023-07-29T19:57:15;2.87;;;2.67;;
8113;SDS011;4099;52.684;9.918;2023-07-29T20:02:17;2.97;;;2.77;;
8113;SDS011;4099;52.684;9.918;2023-07-29T20:07:20;2.93;;;2.70;;
8113;SDS011;4099;52.684;9.918;2023-07-29T20:12:23;3.50;;;3.30;;
8113;SDS011;4099;52.684;9.918;2023-07-29T20:17:24;3.20;;;2.90;;
8113;SDS011;4099;52.684;9.918;2023-07-29T20:22:28;3.33;;;3.00;;
8113;SDS011;4099;52.684;9.918;2023-07-29T20:27:30;2.93;;;2.70;;
8113;SDS011;4099;52.684;9.918;2023-07-29T20:32:34;3.07;;;2.87;;
8113;SDS011;4099;52.684;9.918;2023-07-29T20:37:38;2.87;;;2.67;;
8113;SDS011;4099;52.684;9.918;2023-07-29T20:42:40;2.90;;;2.70;;
8113;SDS011;4099;52.684;9.918;2023-07-29T20:47:42;3.00;;;2.63;;
8113;SDS011;4099;52.684;9.918;2023-07-29T20:52:45;2.47;;;2.27;;
8113;SDS011;4099;52.684;9.918;2023-07-29T20:57:47;3.17;;;2.90;;
8113;SDS011;4099;52.684;9.918;2023-07-29T21:02:49;3.40;;;3.17;;
8113;SDS011;4099;52.684;9.918;2023-07-29T21:07:52;3.63;;;3.33;;
8113;SDS011;4099;52.684;9.918;2023-07-29T21:12:54;4.40;;;4.00;;
8113;SDS011;4099;52.684;9.918;2023-07-29T21:17:57;4.70;;;4.10;;
8113;SDS011;4099;52.684;9.918;2023-07-29T21:23:00;4.40;;;4.00;;
8113;SDS011;4099;52.684;9.918;2023-07-29T21:28:02;4.17;;;3.80;;
8113;SDS011;4099;52.684;9.918;2023-07-29T21:33:04;4.17;;;3.80;;
8113;SDS011;4099;52.684;9.918;2023-07-29T21:38:07;4.87;;;3.97;;
8113;SDS011;4099;52.684;9.918;2023-07-29T21:43:09;4.17;;;3.87;;
8113;SDS011;4099;52.684;9.918;2023-07-29T21:48:11;3.80;;;3.50;;
8113;SDS011;4099;52.684;9.918;2023-07-29T21:53:14;4.60;;;4.00;;
8113;SDS011;4099;52.684;9.918;2023-07-29T21:58:16;4.90;;;4.50;;
8113;SDS011;4099;52.684;9.918;2023-07-29T22:03:18;4.67;;;4.27;;
8113;SDS011;4099;52.684;9.918;2023-07-29T22:08:21;4.70;;;4.30;;
8113;SDS011;4099;52.684;9.918;2023-07-29T22:13:23;4.13;;;3.80;;
8113;SDS011;4099;52.684;9.918;2023-07-29T22:18:25;3.80;;;3.50;;
8113;SDS011;4099;52.684;9.918;2023-07-29T22:23:28;3.63;;;3.33;;
8113;SDS011;4099;52.684;9.918;2023-07-29T22:28:30;4.23;;;3.00;;
8113;SDS011;4099;52.684;9.918;2023-07-29T22:33:34;3.10;;;2.90;;
8113;SDS011;4099;52.684;9.918;2023-07-29T22:38:37;2.80;;;2.60;;
8113;SDS011;4099;52.684;9.918;2023-07-29T22:43:39;3.03;;;2.73;;
8113;SDS011;4099;52.684;9.918;2023-07-29T22:48:41;2.97;;;2.77;;
8113;SDS011;4099;52.684;9.918;2023-07-29T22:53:44;2.90;;;2.70;;
8113;SDS011;4099;52.684;9.918;2023-07-29T22:58:46;3.00;;;2.80;;
8113;SDS011;4099;52.684;9.918;2023-07-29T23:03:48;2.80;;;2.60;;
8113;SDS011;4099;52.684;9.918;2023-07-29T23:08:51;3.07;;;2.77;;
8113;SDS011;4099;52.684;9.918;2023-07-29T23:13:53;2.80;;;2.50;;
8113;SDS011;4099;52.684;9.918;2023-07-29T23:18:55;2.97;;;2.77;;
8113;SDS011;4099;52.684;9.918;2023-07-29T23:23:58;3.10;;;2.80;;
8113;SDS011;4099;52.684;9.918;2023-07-29T23:29:00;3.57;;;2.90;;
8113;SDS011;4099;52.684;9.918;2023-07-29T23:34:02;4.13;;;2.97;;
8113;SDS011;4099;52.684;9.918;2023-07-29T23:39:05;3.30;;;3.00;;
8113;SDS011;4099;52.684;9.918;2023-07-29T23:44:07;3.57;;;3.07;;
8113;SDS011;4099;52.684;9.918;2023-07-29T23:49:09;3.30;;;3.00;;
8113;SDS011;4099;52.684;9.918;2023-07-29T23:54:12;3.30;;;3.10;;
8113;SDS011;4099;52.684;9.918;2023-07-29T23:59:14;3.60;;;3.13;;
